Trapani, Italy

8:56 PM CEST on September 01, 2014 (GMT +0200)
Trapani Palma iw9gtd | Change Station
CLOSE
Current Station
Personal Weather Station
Location: Trapani, SICILIA
Elevation: 72 ft
Nearby Weather Stations
Active Advisory: Wind

Elev 72 ft 37.95 °N, 12.51 °E | Updated 4 minutes ago

Clear
Clear
75.9 °F
Feels Like 78 °F
N
5.0
Wind Variable Wind from North
Gusts 7.2 mph

Today
High -- | Low -- °F
--% Chance of Precip.
Yesterday
High -- | Low -- °F
Precip. -- in
6:39 AM 7:39 PM
Waxing Crescent, 43% visible
Pressure 29.74 in
Visibility -9999.0 miles
Clouds
Heat Index 78 °F
Dew Point 64 °F
Humidity 66%
Rainfall 0.00 in
Snow Depth Not available.
UV Not available.
Pollen Not available.
Air Quality Not available.
Flu Activity Not available.
METAR LICJ 011850Z 33016KT CAVOK 24/18 Q1007

More Conditions Fewer Conditions

Pressure 29.74 in
Visibility -9999.0 miles
Clouds
Heat Index 78 °F
Dew Point 64 °F
Humidity 66%
Rainfall 0.00 in
Snow Depth Not available.
UV Not available.
Pollen Not available.
Air Quality Not available.
Flu Activity Not available.
METAR LICJ 011850Z 33016KT CAVOK 24/18 Q1007

More Conditions Fewer Conditions

10-Day Weather Forecast

Almanac

Astronomy

Sep. 01, 2014 Rise Set
Actual Time 6:39 AM CEST 7:39 PM CEST
Civil Twilight 6:12 AM CEST 8:06 PM CEST
Nautical Twilight 5:40 AM CEST 8:38 PM CEST
Astronomical Twilight 5:07 AM CEST 9:11 PM CEST
Moon 1:01 PM CEST 11:34 PM CEST
Length of Visible Light 13h 53m
Length of Day
13h 00m
Tomorrow will be 2m 21s shorter.
Waxing Crescent, 43% of the Moon is Illuminated
Today
Waxing Crescent
Sep 2
First Quarter
Sep 8
Full
Sep 15
Last Quarter
Sep 24
New

Today's Extremes

Country Highs Country Lows

Community

WunderPhotos

Upload Photos

1,749,359 photos uploaded!

Nearby

Snow Depth

Not available.

Earthquake Activity

City Distance Mag. Time & Date
No recent earthquake activity has been reported nearby.
Minimum magnitude displayed is 2.5.

Coastal Water Temperatures

Place Temperature
No Stations Reporting

Nearby Weather Stations